createdAt,value
2019-04-01T00:02:09.707Z,13.75
2019-04-01T00:04:44.262Z,13.13
2019-04-01T00:07:18.776Z,15.53
2019-04-01T00:09:54.905Z,12.33
2019-04-01T00:12:29.522Z,14.85
2019-04-01T00:15:05.640Z,13.20
2019-04-01T00:17:40.110Z,14.68
2019-04-01T00:20:14.576Z,11.12
2019-04-01T00:22:49.145Z,11.30
2019-04-01T00:25:23.862Z,10.58
2019-04-01T00:27:58.374Z,12.13
2019-04-01T00:30:32.851Z,15.83
2019-04-01T00:33:07.303Z,12.10
2019-04-01T00:35:41.822Z,13.95
2019-04-01T00:38:16.351Z,14.55
2019-04-01T00:40:50.812Z,10.32
2019-04-01T00:43:43.238Z,12.28
2019-04-01T00:46:18.399Z,13.38
2019-04-01T00:48:52.900Z,8.40
2019-04-01T00:51:27.552Z,8.15
2019-04-01T00:54:01.983Z,9.78
2019-04-01T00:56:36.456Z,9.98
2019-04-01T00:59:10.896Z,11.57
2019-04-01T01:01:45.372Z,10.90
2019-04-01T01:04:19.887Z,9.85
2019-04-01T01:06:54.356Z,9.00
2019-04-01T01:09:28.833Z,9.30
2019-04-01T01:12:03.336Z,11.83
2019-04-01T01:14:37.768Z,10.95
2019-04-01T01:17:12.700Z,7.90
2019-04-01T01:19:47.131Z,9.40
2019-04-01T01:22:21.714Z,12.33
2019-04-01T01:24:56.144Z,12.45
2019-04-01T01:27:30.591Z,13.03
2019-04-01T01:30:08.096Z,10.48
2019-04-01T01:32:42.567Z,8.63
2019-04-01T01:35:17.000Z,12.18
2019-04-01T01:37:51.563Z,12.55
2019-04-01T01:40:26.059Z,15.08
2019-04-01T01:43:00.534Z,13.65
2019-04-01T01:45:34.978Z,13.93
2019-04-01T01:48:10.117Z,13.70
2019-04-01T01:50:44.563Z,13.30
2019-04-01T01:53:19.106Z,11.25
2019-04-01T01:55:53.617Z,13.05
2019-04-01T01:58:28.122Z,13.53
2019-04-01T02:01:02.524Z,12.55
2019-04-01T02:03:37.087Z,10.68
2019-04-01T02:06:11.634Z,18.07
2019-04-01T02:08:46.103Z,11.35
2019-04-01T02:11:20.548Z,12.63
2019-04-01T02:13:55.147Z,11.60
2019-04-01T02:16:32.085Z,14.18
2019-04-01T02:19:06.648Z,15.78
2019-04-01T02:21:41.066Z,14.83
2019-04-01T02:24:15.498Z,15.90
2019-04-01T02:26:49.949Z,15.43
2019-04-01T02:29:24.429Z,15.15
2019-04-01T02:31:58.883Z,17.20
2019-04-01T02:34:33.356Z,17.45
2019-04-01T02:37:07.815Z,16.50
2019-04-01T02:39:42.295Z,13.75
2019-04-01T02:42:16.739Z,13.90
2019-04-01T02:44:51.223Z,15.20
2019-04-01T02:47:25.671Z,11.53
2019-04-01T02:50:00.389Z,13.35
2019-04-01T02:52:34.971Z,14.20
2019-04-01T02:55:09.470Z,15.88
2019-04-01T02:57:43.918Z,14.45
2019-04-01T03:00:18.403Z,16.55
2019-04-01T03:02:52.852Z,16.52
2019-04-01T03:05:27.335Z,18.20
2019-04-01T03:08:01.786Z,21.10
2019-04-01T03:10:36.334Z,18.70
2019-04-01T03:13:10.787Z,18.67
2019-04-01T03:15:45.282Z,17.32
2019-04-01T03:18:19.725Z,17.27
2019-04-01T03:20:54.199Z,19.92
2019-04-01T03:23:28.648Z,20.70
2019-04-01T03:26:03.091Z,17.20
2019-04-01T03:28:37.504Z,18.17
2019-04-01T03:31:12.622Z,17.62
2019-04-01T03:33:48.915Z,18.98
2019-04-01T03:36:23.390Z,21.35
2019-04-01T03:38:57.910Z,17.98
2019-04-01T03:41:32.588Z,17.75
2019-04-01T03:44:07.184Z,17.10
2019-04-01T03:46:41.646Z,19.12
2019-04-01T03:49:16.197Z,22.70
2019-04-01T03:51:50.687Z,17.70
2019-04-01T03:54:25.147Z,18.17
2019-04-01T03:56:59.647Z,19.02
2019-04-01T03:59:34.043Z,17.12
2019-04-01T04:02:08.556Z,16.57
2019-04-01T04:04:43.015Z,16.95
2019-04-01T04:07:17.469Z,18.73
2019-04-01T04:09:52.140Z,19.10
2019-04-01T04:12:26.605Z,25.50
2019-04-01T04:15:01.037Z,20.30
2019-04-01T04:17:35.515Z,26.30
2019-04-01T04:20:10.729Z,21.48
2019-04-01T04:22:45.258Z,24.15
2019-04-01T04:25:19.729Z,19.75
2019-04-01T04:27:54.339Z,21.68
2019-04-01T04:30:28.769Z,22.40
2019-04-01T04:33:03.253Z,25.30
2019-04-01T04:35:37.692Z,17.50
2019-04-01T04:38:12.937Z,25.57
2019-04-01T04:40:47.375Z,22.35
2019-04-01T04:43:21.851Z,23.38
2019-04-01T04:45:56.263Z,23.77
2019-04-01T04:48:32.350Z,28.85
2019-04-01T04:51:06.774Z,26.52
2019-04-01T04:53:41.251Z,25.77
2019-04-01T04:56:15.698Z,22.73
2019-04-01T04:58:50.193Z,19.57
2019-04-01T05:01:26.271Z,28.55
2019-04-01T05:04:02.451Z,34.30
2019-04-01T05:06:36.971Z,25.95
2019-04-01T05:09:11.528Z,25.15
2019-04-01T05:11:45.969Z,28.52
2019-04-01T05:14:20.529Z,31.73
2019-04-01T05:16:55.049Z,23.98
2019-04-01T05:19:29.530Z,20.82
2019-04-01T05:22:03.966Z,22.27
2019-04-01T05:24:38.447Z,22.75
2019-04-01T05:27:13.630Z,21.60
2019-04-01T05:29:49.753Z,28.57
2019-04-01T05:32:24.691Z,19.42
2019-04-01T05:35:00.783Z,18.67
2019-04-01T05:37:35.244Z,29.12
2019-04-01T05:40:09.726Z,21.65
2019-04-01T05:42:44.166Z,43.70
2019-04-01T05:45:18.721Z,30.32
2019-04-01T05:47:54.430Z,23.55
2019-04-01T05:50:28.911Z,22.52
2019-04-01T05:53:03.361Z,24.85
2019-04-01T05:55:37.835Z,23.22
2019-04-01T05:58:12.283Z,20.75
2019-04-01T06:00:51.352Z,23.15
2019-04-01T06:03:25.809Z,40.80
2019-04-01T06:06:00.251Z,27.62
2019-04-01T06:08:34.666Z,27.17
2019-04-01T06:11:09.183Z,20.75
2019-04-01T06:13:43.632Z,37.78
2019-04-01T06:16:18.118Z,28.90
2019-04-01T06:18:52.563Z,26.85
2019-04-01T06:21:27.051Z,28.25
2019-04-01T06:24:01.498Z,27.32
2019-04-01T06:26:35.986Z,25.82
2019-04-01T06:29:10.971Z,27.62
2019-04-01T06:31:47.089Z,29.12
2019-04-01T06:34:23.242Z,36.23
2019-04-01T06:36:57.783Z,27.52
2019-04-01T06:39:32.188Z,24.87
2019-04-01T06:42:07.321Z,26.00
2019-04-01T06:44:41.883Z,26.17
2019-04-01T06:47:17.041Z,26.97
2019-04-01T06:49:51.756Z,32.13
2019-04-01T06:52:26.190Z,27.15
2019-04-01T06:55:00.606Z,26.40
2019-04-01T06:57:35.151Z,29.67
2019-04-01T07:00:09.594Z,29.23
2019-04-01T07:02:44.079Z,27.48
2019-04-01T07:05:18.529Z,26.05
2019-04-01T07:07:53.015Z,22.27
2019-04-01T07:10:27.472Z,28.50
2019-04-01T07:13:01.969Z,28.05
2019-04-01T07:15:36.591Z,25.85
2019-04-01T07:18:12.710Z,26.02
2019-04-01T07:20:47.112Z,28.30
2019-04-01T07:23:21.573Z,26.25
2019-04-01T07:25:56.011Z,29.35
2019-04-01T07:28:30.483Z,23.50
2019-04-01T07:31:04.957Z,26.90
2019-04-01T07:33:39.433Z,26.55
2019-04-01T07:36:13.884Z,26.73
2019-04-01T07:38:48.394Z,23.52
2019-04-01T07:41:22.891Z,26.77
2019-04-01T07:43:57.453Z,25.08
2019-04-01T07:46:31.894Z,22.30
2019-04-01T07:49:06.406Z,31.25
2019-04-01T07:51:40.896Z,21.97
2019-04-01T07:54:18.518Z,22.73
2019-04-01T07:56:52.623Z,26.68
2019-04-01T07:59:27.111Z,23.18
2019-04-01T08:02:01.551Z,25.23
2019-04-01T08:04:36.037Z,25.55
2019-04-01T08:07:13.366Z,20.97
2019-04-01T08:09:46.600Z,26.48
2019-04-01T08:12:21.114Z,22.30
2019-04-01T08:14:55.585Z,21.87
2019-04-01T08:17:30.030Z,23.15
2019-04-01T08:20:05.165Z,23.40
2019-04-01T08:22:43.017Z,19.92
2019-04-01T08:25:15.699Z,23.50
2019-04-01T08:27:50.149Z,23.40
2019-04-01T08:30:24.631Z,23.77
2019-04-01T08:32:59.084Z,22.93
2019-04-01T08:35:33.566Z,18.15
2019-04-01T08:38:08.017Z,19.42
2019-04-01T08:40:42.500Z,22.00
2019-04-01T08:43:16.954Z,22.42
2019-04-01T08:45:51.435Z,20.97
2019-04-01T08:48:25.889Z,19.65
2019-04-01T08:51:00.376Z,19.77
2019-04-01T08:53:34.881Z,22.93
2019-04-01T08:56:09.359Z,19.87
2019-04-01T08:58:45.441Z,19.35
2019-04-01T09:01:34.195Z,19.50
2019-04-01T09:03:56.010Z,17.80
2019-04-01T09:06:31.441Z,21.93
2019-04-01T09:09:06.771Z,19.90
2019-04-01T09:11:41.247Z,19.45
2019-04-01T09:14:15.704Z,18.87
2019-04-01T09:16:50.236Z,17.37
2019-04-01T09:19:24.642Z,18.65
2019-04-01T09:21:59.136Z,17.77
2019-04-01T09:24:33.584Z,20.12
2019-04-01T09:27:09.687Z,16.95
2019-04-01T09:29:45.765Z,19.65
2019-04-01T09:32:21.888Z,19.77
2019-04-01T09:34:56.362Z,17.32
2019-04-01T09:37:30.805Z,17.80
2019-04-01T09:40:06.720Z,18.50
2019-04-01T09:42:41.201Z,19.92
2019-04-01T09:45:15.650Z,17.90
2019-04-01T09:47:50.130Z,17.67
2019-04-01T09:50:24.583Z,15.70
2019-04-01T09:52:59.080Z,18.73
2019-04-01T09:55:33.518Z,19.98
2019-04-01T09:58:07.994Z,17.55
2019-04-01T10:00:42.433Z,16.80
2019-04-01T10:03:16.993Z,19.02
2019-04-01T10:05:51.438Z,21.97
2019-04-01T10:08:41.128Z,22.05
2019-04-01T10:11:01.986Z,16.45
2019-04-01T10:13:36.474Z,18.12
2019-04-01T10:16:10.927Z,16.35
2019-04-01T10:18:45.407Z,20.08
2019-04-01T10:21:19.850Z,20.37
2019-04-01T10:23:54.448Z,18.77
2019-04-01T10:26:29.587Z,19.35
2019-04-01T10:29:04.080Z,22.82
2019-04-01T10:31:38.528Z,18.23
2019-04-01T10:34:13.012Z,19.30
2019-04-01T10:36:47.467Z,16.37
2019-04-01T10:39:22.030Z,18.70
2019-04-01T10:41:56.465Z,17.77
2019-04-01T10:44:31.065Z,20.72
2019-04-01T10:47:05.534Z,19.67
2019-04-01T10:49:40.033Z,18.85
2019-04-01T10:52:14.524Z,17.30
2019-04-01T10:54:49.119Z,16.62
2019-04-01T10:57:25.295Z,15.05
2019-04-01T10:59:59.776Z,16.32
2019-04-01T11:02:34.257Z,17.30
2019-04-01T11:05:08.974Z,15.10
2019-04-01T11:07:43.501Z,22.27
2019-04-01T11:10:18.015Z,17.82
2019-04-01T11:12:56.304Z,14.60
2019-04-01T11:15:30.896Z,18.80
2019-04-01T11:18:05.343Z,14.60
2019-04-01T11:20:39.823Z,13.55
2019-04-01T11:23:15.896Z,16.80
2019-04-01T11:25:50.447Z,15.75
2019-04-01T11:28:24.938Z,18.05
2019-04-01T11:30:59.409Z,19.62
2019-04-01T11:33:33.902Z,12.98
2019-04-01T11:36:08.389Z,18.50
2019-04-01T11:38:42.930Z,17.90
2019-04-01T11:41:17.368Z,14.85
2019-04-01T11:43:52.705Z,14.25
2019-04-01T11:46:27.561Z,12.65
2019-04-01T11:49:01.996Z,14.03
2019-04-01T11:51:39.849Z,12.78
2019-04-01T11:54:12.569Z,12.68
2019-04-01T11:56:47.136Z,13.28
2019-04-01T11:59:21.578Z,13.32
2019-04-01T12:01:56.061Z,13.00
2019-04-01T12:04:30.510Z,15.08
2019-04-01T12:07:05.196Z,14.05
2019-04-01T12:09:39.626Z,16.67
2019-04-01T12:12:23.439Z,15.18
2019-04-01T12:15:12.063Z,12.70
2019-04-01T12:17:46.560Z,15.50
2019-04-01T12:20:21.062Z,13.65
2019-04-01T12:22:55.507Z,13.10
2019-04-01T12:25:31.686Z,10.98
2019-04-01T12:28:07.775Z,13.08
2019-04-01T12:30:43.892Z,16.97
2019-04-01T12:33:20.036Z,13.45
2019-04-01T12:35:56.140Z,11.95
2019-04-01T12:38:32.220Z,11.53
2019-04-01T12:41:08.343Z,11.53
2019-04-01T12:43:44.496Z,12.23
2019-04-01T12:46:19.403Z,11.75
2019-04-01T12:48:53.865Z,11.43
2019-04-01T12:51:28.483Z,14.40
2019-04-01T12:54:02.927Z,15.00
2019-04-01T12:56:37.416Z,12.47
2019-04-01T12:59:11.855Z,11.08
2019-04-01T13:01:46.340Z,16.05
2019-04-01T13:04:20.789Z,11.22
2019-04-01T13:06:55.337Z,11.85
2019-04-01T13:09:29.779Z,11.43
2019-04-01T13:12:04.408Z,15.70
2019-04-01T13:14:40.220Z,11.50
2019-04-01T13:17:14.825Z,16.37
2019-04-01T13:19:49.339Z,12.63
2019-04-01T13:22:23.817Z,10.40
2019-04-01T13:24:58.267Z,10.60
2019-04-01T13:27:32.833Z,13.83
2019-04-01T13:30:07.266Z,10.43
2019-04-01T13:32:41.764Z,10.58
2019-04-01T13:35:16.184Z,14.15
2019-04-01T13:37:50.692Z,10.50
2019-04-01T13:40:25.116Z,10.40
2019-04-01T13:42:59.590Z,10.25
2019-04-01T13:45:34.031Z,17.73
2019-04-01T13:48:08.508Z,11.97
2019-04-01T13:50:43.891Z,11.63
2019-04-01T13:53:18.371Z,13.70
2019-04-01T13:55:52.830Z,10.78
2019-04-01T13:58:27.306Z,12.28
2019-04-01T14:01:01.735Z,11.22
2019-04-01T14:03:38.971Z,10.40
2019-04-01T14:06:13.482Z,10.40
2019-04-01T14:08:47.972Z,10.13
2019-04-01T14:11:22.417Z,10.63
2019-04-01T14:13:58.528Z,10.38
2019-04-01T14:16:34.594Z,15.15
2019-04-01T14:19:09.071Z,12.90
2019-04-01T14:21:43.518Z,10.03
2019-04-01T14:24:18.002Z,12.37
2019-04-01T14:26:52.442Z,11.05
2019-04-01T14:29:27.618Z,9.35
2019-04-01T14:32:02.067Z,9.55
2019-04-01T14:34:36.549Z,11.90
2019-04-01T14:37:12.396Z,8.98
2019-04-01T14:39:46.975Z,10.20
2019-04-01T14:42:21.415Z,13.03
2019-04-01T14:44:58.467Z,11.15
2019-04-01T14:47:33.035Z,14.47
2019-04-01T14:50:08.005Z,13.38
2019-04-01T14:52:42.671Z,11.63
2019-04-01T14:55:17.156Z,10.32
2019-04-01T14:57:51.593Z,12.45
2019-04-01T15:00:26.208Z,9.38
2019-04-01T15:03:00.714Z,11.55
2019-04-01T15:05:35.213Z,14.07
2019-04-01T15:08:09.652Z,12.88
2019-04-01T15:10:44.193Z,10.20
2019-04-01T15:13:18.974Z,13.22
2019-04-01T15:15:53.462Z,10.38
2019-04-01T15:18:27.896Z,9.88
2019-04-01T15:21:04.007Z,12.50
2019-04-01T15:23:38.452Z,15.50
2019-04-01T15:26:12.925Z,10.65
2019-04-01T15:28:47.443Z,11.08
2019-04-01T15:31:21.931Z,12.50
2019-04-01T15:33:56.434Z,14.50
2019-04-01T15:36:30.912Z,11.18
2019-04-01T15:39:07.003Z,15.72
2019-04-01T15:41:41.484Z,10.15
2019-04-01T15:44:16.190Z,9.88
2019-04-01T15:46:51.005Z,14.00
2019-04-01T15:49:26.759Z,15.48
2019-04-01T15:52:01.238Z,12.03
2019-04-01T15:54:38.706Z,13.32
2019-04-01T15:57:15.326Z,14.33
2019-04-01T15:59:49.875Z,13.90
2019-04-01T16:02:24.309Z,12.93
2019-04-01T16:04:58.710Z,11.20
2019-04-01T16:07:33.257Z,12.40
2019-04-01T16:10:07.719Z,15.83
2019-04-01T16:12:42.199Z,13.43
2019-04-01T16:15:16.634Z,12.90
2019-04-01T16:17:53.797Z,10.58
2019-04-01T16:20:27.268Z,12.63
2019-04-01T16:23:01.748Z,11.05
2019-04-01T16:25:38.362Z,10.95
2019-04-01T16:28:19.402Z,13.62
2019-04-01T16:30:53.851Z,13.05
2019-04-01T16:33:28.331Z,11.95
2019-04-01T16:36:03.911Z,13.28
2019-04-01T16:38:38.384Z,13.72
2019-04-01T16:41:12.822Z,17.42
2019-04-01T16:43:49.511Z,13.22
2019-04-01T16:46:23.953Z,22.37
2019-04-01T16:48:59.523Z,16.75
2019-04-01T16:51:34.549Z,20.27
2019-04-01T16:54:09.120Z,22.42
2019-04-01T16:56:43.565Z,11.30
2019-04-01T16:59:18.046Z,13.45
2019-04-01T17:01:52.660Z,18.77
2019-04-01T17:04:27.731Z,9.53
2019-04-01T17:07:02.364Z,9.30
2019-04-01T17:09:36.808Z,9.85
2019-04-01T17:12:11.444Z,17.98
2019-04-01T17:14:45.896Z,28.07
2019-04-01T17:17:20.475Z,40.40
2019-04-01T17:19:54.962Z,23.50
2019-04-01T17:22:32.482Z,23.15
2019-04-01T17:25:07.406Z,31.57
2019-04-01T17:27:41.850Z,31.57
2019-04-01T17:30:16.429Z,35.17
2019-04-01T17:32:54.442Z,26.97
2019-04-01T17:35:29.626Z,26.25
2019-04-01T17:38:07.131Z,39.50
2019-04-01T17:40:42.446Z,30.30
2019-04-01T17:43:18.089Z,27.98
2019-04-01T17:45:52.646Z,26.62
2019-04-01T17:48:27.664Z,25.70
2019-04-01T17:51:02.213Z,27.27
2019-04-01T17:53:36.663Z,27.22
2019-04-01T17:56:11.411Z,27.65
2019-04-01T17:58:45.859Z,26.37
2019-04-01T18:01:21.515Z,66.25
2019-04-01T18:03:55.968Z,19.10
2019-04-01T18:06:30.452Z,23.73
2019-04-01T18:09:07.437Z,14.20
2019-04-01T18:11:44.683Z,18.07
2019-04-01T18:14:19.525Z,15.35
2019-04-01T18:16:55.478Z,15.98
2019-04-01T18:19:29.987Z,9.10
2019-04-01T18:22:05.562Z,24.32
2019-04-01T18:24:40.086Z,19.60
2019-04-01T18:27:15.143Z,8.53
2019-04-01T18:29:49.907Z,7.85
2019-04-01T18:32:24.347Z,9.68
2019-04-01T18:34:58.751Z,13.65
2019-04-01T18:37:33.250Z,9.75
2019-04-01T18:40:07.690Z,10.68
2019-04-01T18:42:42.166Z,8.98
2019-04-01T18:45:17.174Z,6.53
2019-04-01T18:47:51.647Z,11.05
2019-04-01T18:50:29.935Z,13.45
2019-04-01T18:53:04.674Z,20.27
2019-04-01T18:55:39.804Z,13.40
2019-04-01T18:58:14.283Z,10.88
2019-04-01T19:00:48.728Z,8.20
2019-04-01T19:03:24.228Z,8.30
2019-04-01T19:05:58.797Z,8.23
2019-04-01T19:08:33.567Z,14.73
2019-04-01T19:11:08.067Z,7.42
2019-04-01T19:13:43.620Z,12.37
2019-04-01T19:16:18.134Z,9.63
2019-04-01T19:18:52.613Z,10.48
2019-04-01T19:21:29.938Z,11.63
2019-04-01T19:24:06.715Z,14.13
2019-04-01T19:26:42.920Z,12.10
2019-04-01T19:29:17.387Z,4.72
2019-04-01T19:31:51.833Z,7.15
2019-04-01T19:34:27.948Z,8.63
2019-04-01T19:37:02.386Z,7.62
2019-04-01T19:39:36.979Z,10.55
2019-04-01T19:42:13.060Z,12.43
2019-04-01T19:44:51.261Z,8.33
2019-04-01T19:47:25.699Z,9.40
2019-04-01T19:50:00.166Z,12.58
2019-04-01T19:52:35.690Z,13.08
2019-04-01T19:55:10.389Z,10.03
2019-04-01T19:57:44.813Z,13.22
2019-04-01T20:00:27.552Z,8.75
2019-04-01T20:02:56.570Z,11.00
2019-04-01T20:05:32.626Z,10.38
2019-04-01T20:08:07.080Z,6.92
2019-04-01T20:10:41.625Z,6.90
2019-04-01T20:13:16.057Z,9.78
2019-04-01T20:15:54.619Z,7.58
2019-04-01T20:18:32.026Z,8.35
2019-04-01T20:21:07.069Z,6.78
2019-04-01T20:23:41.506Z,11.15
2019-04-01T20:26:16.000Z,11.20
2019-04-01T20:28:50.451Z,8.35
2019-04-01T20:31:24.934Z,11.30
2019-04-01T20:33:59.373Z,7.53
2019-04-01T20:36:33.849Z,7.70
2019-04-01T20:39:11.103Z,8.93
2019-04-01T20:41:45.626Z,6.70
2019-04-01T20:44:20.171Z,4.92
2019-04-01T20:46:54.655Z,9.78
2019-04-01T20:49:29.374Z,5.25
2019-04-01T20:52:06.360Z,8.75
2019-04-01T20:54:42.442Z,10.03
2019-04-01T20:57:17.338Z,7.20
2019-04-01T20:59:52.054Z,9.23
2019-04-01T21:02:26.547Z,5.62
2019-04-01T21:05:00.952Z,6.47
2019-04-01T21:07:35.790Z,13.38
2019-04-01T21:10:11.866Z,9.23
2019-04-01T21:12:48.291Z,12.18
2019-04-01T21:15:24.352Z,8.15
2019-04-01T21:18:00.529Z,7.70
2019-04-01T21:20:36.596Z,6.60
2019-04-01T21:23:12.709Z,8.48
2019-04-01T21:25:48.774Z,11.83
2019-04-01T21:28:25.453Z,12.35
2019-04-01T21:31:01.781Z,8.98
2019-04-01T21:33:37.842Z,6.55
2019-04-01T21:36:16.033Z,9.00
2019-04-01T21:38:51.701Z,11.95
2019-04-01T21:41:27.773Z,6.35
2019-04-01T21:44:03.861Z,8.93
2019-04-01T21:46:39.940Z,8.03
2019-04-01T21:49:16.045Z,6.30
2019-04-01T21:51:52.123Z,8.60
2019-04-01T21:54:28.551Z,5.55
2019-04-01T21:57:04.711Z,10.60
2019-04-01T21:59:40.844Z,9.78
2019-04-01T22:02:16.910Z,5.65
2019-04-01T22:04:53.008Z,5.03
2019-04-01T22:07:29.083Z,10.72
2019-04-01T22:10:05.727Z,8.18
2019-04-01T22:12:41.785Z,5.92
2019-04-01T22:15:18.822Z,9.43
2019-04-01T22:17:54.954Z,8.38
2019-04-01T22:20:31.064Z,4.40
2019-04-01T22:23:07.190Z,6.05
2019-04-01T22:25:43.287Z,10.03
2019-04-01T22:28:19.348Z,6.65
2019-04-01T22:30:55.442Z,5.65
2019-04-01T22:33:31.471Z,6.85
2019-04-01T22:36:07.522Z,9.38
2019-04-01T22:38:43.592Z,5.70
2019-04-01T22:41:19.683Z,5.87
2019-04-01T22:43:55.747Z,12.85
2019-04-01T22:46:34.450Z,6.55
2019-04-01T22:49:09.529Z,6.08
2019-04-01T22:51:45.573Z,4.22
2019-04-01T22:54:21.600Z,4.62
2019-04-01T22:56:57.702Z,3.95
2019-04-01T22:59:33.764Z,5.25
2019-04-01T23:02:09.865Z,6.83
2019-04-01T23:04:45.922Z,4.10
2019-04-01T23:07:22.011Z,5.70
2019-04-01T23:09:58.398Z,7.12
2019-04-01T23:12:34.677Z,7.30
2019-04-01T23:15:10.736Z,2.87
2019-04-01T23:17:46.840Z,4.42
2019-04-01T23:20:22.899Z,5.55
2019-04-01T23:22:59.009Z,6.53
2019-04-01T23:25:35.054Z,4.80
2019-04-01T23:28:11.157Z,8.08
2019-04-01T23:30:48.131Z,5.55
2019-04-01T23:33:25.122Z,5.65
2019-04-01T23:36:01.186Z,6.25
2019-04-01T23:38:37.290Z,6.80
2019-04-01T23:41:13.349Z,7.62
2019-04-01T23:43:49.412Z,6.50
2019-04-01T23:46:25.394Z,4.03
2019-04-01T23:49:01.454Z,5.20
2019-04-01T23:51:37.464Z,5.55
2019-04-01T23:54:13.519Z,6.05
2019-04-01T23:56:49.569Z,5.78
2019-04-01T23:59:25.659Z,4.30
